Time;durP1;ratioP1;P1;durP2;ratioP2;P2;SDS_P1;SDS_P2;PMS_P1;PMS_P2;Temp;Humidity;BMP_temperature;BMP_pressure;BME280_temperature;BME280_humidity;BME280_pressure;Samples;Min_cycle;Max_cycle;Signal;HPM_P1;HPM_P2
2022/10/18 00:01:14;;;;;;;;;;;;;;;;;;5038103;28;20008;-61
2022/10/18 00:03:39;;;;;;;;;;;;;;;;;;5041999;28;20438;-62
2022/10/18 00:06:04;;;;;;;;;;;;;;;;;;5045194;28;19917;-61
2022/10/18 00:08:30;;;;;;;;;;;;;;;;;;5042865;28;19967;-62
2022/10/18 00:10:55;;;;;;;;;;;;;;;;;;5042869;28;20387;-62
2022/10/18 00:13:20;;;;;;;;;;;;;;;;;;5042552;28;19954;-61
2022/10/18 00:15:45;;;;;;;;;;;;;;;;;;5043211;28;20273;-62
2022/10/18 00:18:10;;;;;;;;;;;;;;;;;;5041870;28;19924;-61
2022/10/18 00:20:35;;;;;;;;;;;;;;;;;;5043535;28;20021;-61
2022/10/18 00:23:01;;;;;;;;;;;;;;;;;;5041328;28;19917;-62
2022/10/18 00:25:26;;;;;;;;;;;;;;;;;;5041162;28;19917;-62
2022/10/18 00:27:51;;;;;;;;;;;;;;;;;;5041943;28;19964;-62
2022/10/18 00:30:16;;;;;;;;;;;;;;;;;;5042664;28;19950;-62
2022/10/18 00:32:41;;;;;;;;;;;;;;;;;;5042260;28;19928;-63
2022/10/18 00:35:07;;;;;;;;;;;;;;;;;;5041569;28;21549;-62
2022/10/18 00:37:32;;;;;;;;;;;;;;;;;;5042462;28;20201;-62
2022/10/18 00:39:57;;;;;;;;;;;;;;;;;;5041137;28;19918;-62
2022/10/18 00:42:22;;;;;;;;;;;;;;;;;;5043452;28;19971;-62
2022/10/18 00:44:47;;;;;;;;;;;;;;;;;;5042047;28;19971;-61
2022/10/18 00:47:13;;;;;;;;;;;;;;;;;;5042126;28;19928;-62
2022/10/18 00:49:38;;;;;;;;;;;;;;;;;;5040298;28;19955;-61
2022/10/18 00:52:03;;;;;;;;;;;;;;;;;;5040561;28;19925;-61
2022/10/18 00:54:28;;;;;;;;;;;;;;;;;;5045257;28;19925;-61
2022/10/18 00:56:53;;;;;;;;;;;;;;;;;;5046305;28;19917;-62
2022/10/18 00:59:18;;;;;;;;;;;;;;;;;;5044563;28;20413;-62
2022/10/18 01:01:44;;;;;;;;;;;;;;;;;;5043509;28;19924;-62
2022/10/18 01:04:09;;;;;;;;;;;;;;;;;;5045910;28;19936;-62
2022/10/18 01:06:34;;;;;;;;;;;;;;;;;;5046555;28;19917;-61
2022/10/18 01:08:59;;;;;;;;;;;;;;;;;;5045519;28;19960;-61
2022/10/18 01:11:24;;;;;;;;;;;;;;;;;;5044684;28;20632;-62
2022/10/18 01:13:50;;;;;;;;;;;;;;;;;;5045469;28;20616;-62
2022/10/18 01:16:15;;;;;;;;;;;;;;;;;;5045012;28;19925;-62
2022/10/18 01:18:40;;;;;;;;;;;;;;;;;;5045002;28;20538;-62
2022/10/18 01:21:05;;;;;;;;;;;;;;;;;;5045566;28;19921;-61
2022/10/18 01:23:30;;;;;;;;;;;;;;;;;;5045130;28;19929;-62
2022/10/18 01:25:55;;;;;;;;;;;;;;;;;;5046273;28;20665;-62
2022/10/18 01:28:21;;;;;;;;;;;;;;;;;;5044868;28;19917;-62
2022/10/18 01:30:46;;;;;;;;;;;;;;;;;;5040618;28;20445;-61
2022/10/18 01:33:11;;;;;;;;;;;;;;;;;;5043305;28;20368;-62
2022/10/18 01:35:37;;;;;;;;;;;;;;;;;;5043959;28;19987;-62
2022/10/18 01:38:02;;;;;;;;;;;;;;;;;;5045085;28;19917;-62
2022/10/18 01:40:27;;;;;;;;;;;;;;;;;;5045433;28;19970;-61
2022/10/18 01:42:52;;;;;;;;;;;;;;;;;;5045546;28;20023;-62
2022/10/18 01:45:17;;;;;;;;;;;;;;;;;;5045965;28;19921;-62
2022/10/18 01:47:42;;;;;;;;;;;;;;;;;;5043507;28;19952;-62
2022/10/18 01:50:08;;;;;;;;;;;;;;;;;;5042347;28;19976;-61
2022/10/18 01:52:33;;;;;;;;;;;;;;;;;;5044644;28;20420;-62
2022/10/18 01:54:58;;;;;;;;;;;;;;;;;;5045106;28;19916;-61
2022/10/18 01:57:23;;;;;;;;;;;;;;;;;;5043202;28;19916;-62
2022/10/18 01:59:48;;;;;;;;;;;;;;;;;;5044900;28;19917;-62
2022/10/18 02:02:14;;;;;;;;;;;;;;;;;;5043318;28;19917;-62
2022/10/18 02:04:39;;;;;;;;;;;;;;;;;;5042830;28;19925;-61
2022/10/18 02:07:04;;;;;;;;;;;;;;;;;;5044054;28;19923;-62
2022/10/18 02:09:29;;;;;;;;;;;;;;;;;;5046593;28;19943;-61
2022/10/18 02:11:54;;;;;;;;;;;;;;;;;;5045992;28;19921;-62
2022/10/18 02:14:20;;;;;;;;;;;;;;;;;;5043013;28;19927;-62
2022/10/18 02:16:45;;;;;;;;;;;;;;;;;;5044616;28;20273;-61
2022/10/18 02:19:10;;;;;;;;;;;;;;;;;;5044261;28;20462;-62
2022/10/18 02:21:36;;;;;;;;;;;;;;;;;;5042149;28;20444;-62
2022/10/18 02:24:01;;;;;;;;;;;;;;;;;;5044095;28;20530;-62
2022/10/18 02:26:26;;;;;;;;;;;;;;;;;;5043641;28;19924;-61
2022/10/18 02:28:51;;;;;;;;;;;;;;;;;;5044831;28;19924;-61
2022/10/18 02:31:16;;;;;;;;;;;;;;;;;;5034895;28;20395;-61
2022/10/18 02:33:41;;;;;;;;;;;;;;;;;;5042840;28;19920;-62
2022/10/18 02:36:07;;;;;;;;;;;;;;;;;;5045233;28;19917;-62
2022/10/18 02:38:32;;;;;;;;;;;;;;;;;;5043461;28;20445;-61
2022/10/18 02:40:57;;;;;;;;;;;;;;;;;;5047673;28;19924;-62
2022/10/18 02:43:22;;;;;;;;;;;;;;;;;;5042424;28;20008;-61
2022/10/18 02:45:47;;;;;;;;;;;;;;;;;;5043063;28;19920;-62
2022/10/18 02:48:12;;;;;;;;;;;;;;;;;;5042564;28;20039;-61
2022/10/18 02:50:38;;;;;;;;;;;;;;;;;;5043625;28;20010;-61
2022/10/18 02:53:03;;;;;;;;;;;;;;;;;;5043978;28;19925;-62
2022/10/18 02:55:28;;;;;;;;;;;;;;;;;;5043049;28;19917;-61
2022/10/18 02:57:53;;;;;;;;;;;;;;;;;;5044242;28;19929;-61
2022/10/18 03:00:18;;;;;;;;;;;;;;;;;;5044203;28;19927;-61
2022/10/18 03:02:44;;;;;;;;;;;;;;;;;;5042087;28;20352;-61
2022/10/18 03:05:09;;;;;;;;;;;;;;;;;;5044770;28;19916;-62
2022/10/18 03:07:34;;;;;;;;;;;;;;;;;;5043467;28;19917;-61
2022/10/18 03:10:00;;;;;;;;;;;;;;;;;;5044243;28;19929;-61
2022/10/18 03:12:25;;;;;;;;;;;;;;;;;;5040271;28;19974;-61
2022/10/18 03:14:50;;;;;;;;;;;;;;;;;;5042766;28;20372;-61
2022/10/18 03:17:15;;;;;;;;;;;;;;;;;;5043229;28;19916;-61
2022/10/18 03:19:40;;;;;;;;;;;;;;;;;;5041144;28;19974;-61
2022/10/18 03:22:06;;;;;;;;;;;;;;;;;;5042777;28;19917;-61
2022/10/18 03:24:31;;;;;;;;;;;;;;;;;;5041099;28;19917;-61
2022/10/18 03:26:56;;;;;;;;;;;;;;;;;;5044097;28;19994;-62
2022/10/18 03:29:21;;;;;;;;;;;;;;;;;;5045694;28;20346;-62
2022/10/18 03:31:46;;;;;;;;;;;;;;;;;;5042148;28;20419;-62
2022/10/18 03:34:12;;;;;;;;;;;;;;;;;;5043062;28;19924;-62
2022/10/18 03:36:38;;;;;;;;;;;;;;;;;;5043033;28;19999;-62
2022/10/18 03:39:04;;;;;;;;;;;;;;;;;;5043059;28;19928;-62
2022/10/18 03:41:29;;;;;;;;;;;;;;;;;;5042882;28;19920;-61
2022/10/18 03:43:54;;;;;;;;;;;;;;;;;;5042733;28;19970;-62
2022/10/18 03:46:19;;;;;;;;;;;;;;;;;;5043047;28;19994;-61
2022/10/18 03:48:44;;;;;;;;;;;;;;;;;;5042250;28;20763;-61
2022/10/18 03:51:10;;;;;;;;;;;;;;;;;;5044076;28;19928;-62
2022/10/18 03:53:35;;;;;;;;;;;;;;;;;;5040925;28;20029;-62
2022/10/18 03:56:00;;;;;;;;;;;;;;;;;;5042461;28;19917;-62
2022/10/18 03:58:25;;;;;;;;;;;;;;;;;;5043489;28;19924;-61
2022/10/18 04:00:50;;;;;;;;;;;;;;;;;;5044033;28;20094;-61
2022/10/18 04:03:15;;;;;;;;;;;;;;;;;;5039683;28;19916;-62
2022/10/18 04:05:41;;;;;;;;;;;;;;;;;;5040726;28;19931;-61
2022/10/18 04:08:06;;;;;;;;;;;;;;;;;;5037676;28;20153;-62
2022/10/18 04:10:31;;;;;;;;;;;;;;;;;;5034795;28;19960;-62
2022/10/18 04:12:56;;;;;;;;;;;;;;;;;;5041884;28;19920;-62
2022/10/18 04:15:21;;;;;;;;;;;;;;;;;;5041322;28;20312;-62
2022/10/18 04:17:47;;;;;;;;;;;;;;;;;;5042384;28;20003;-62
2022/10/18 04:20:12;;;;;;;;;;;;;;;;;;5042191;28;19917;-61
2022/10/18 04:22:37;;;;;;;;;;;;;;;;;;5039822;28;20011;-62
2022/10/18 04:25:02;;;;;;;;;;;;;;;;;;5041818;28;19970;-62
2022/10/18 04:27:27;;;;;;;;;;;;;;;;;;5043074;28;19921;-62
2022/10/18 04:29:53;;;;;;;;;;;;;;;;;;5047905;28;20639;-62
2022/10/18 04:32:18;;;;;;;;;;;;;;;;;;5046704;28;19928;-62
2022/10/18 04:34:44;;;;;;;;;;;;;;;;;;5046853;28;19925;-61
2022/10/18 04:37:09;;;;;;;;;;;;;;;;;;5048524;28;20436;-61
2022/10/18 04:39:34;;;;;;;;;;;;;;;;;;5046209;28;19923;-62
2022/10/18 04:41:59;;;;;;;;;;;;;;;;;;5044984;28;19924;-62
2022/10/18 04:44:24;;;;;;;;;;;;;;;;;;5046287;28;19962;-62
2022/10/18 04:46:50;;;;;;;;;;;;;;;;;;5046848;28;20027;-62
2022/10/18 04:49:15;;;;;;;;;;;;;;;;;;5045794;28;20405;-62
2022/10/18 04:51:40;;;;;;;;;;;;;;;;;;5045644;28;19920;-62
2022/10/18 04:54:05;;;;;;;;;;;;;;;;;;5045227;28;19916;-62
2022/10/18 04:56:31;;;;;;;;;;;;;;;;;;5044864;28;20042;-62
2022/10/18 04:58:56;;;;;;;;;;;;;;;;;;5044298;28;19948;-63
2022/10/18 05:01:21;;;;;;;;;;;;;;;;;;5044069;28;19917;-63
2022/10/18 05:03:46;;;;;;;;;;;;;;;;;;5046668;28;20377;-62
2022/10/18 05:06:12;;;;;;;;;;;;;;;;;;5046464;28;19932;-63
2022/10/18 05:08:37;;;;;;;;;;;;;;;;;;5046236;28;19971;-62
2022/10/18 05:11:02;;;;;;;;;;;;;;;;;;5045567;28;20000;-62
2022/10/18 05:13:27;;;;;;;;;;;;;;;;;;5045998;28;20369;-62
2022/10/18 05:15:52;;;;;;;;;;;;;;;;;;5044520;28;19916;-62
2022/10/18 05:18:18;;;;;;;;;;;;;;;;;;5043932;28;19917;-62
2022/10/18 05:20:43;;;;;;;;;;;;;;;;;;5044396;28;19920;-62
2022/10/18 05:23:11;;;;;;;;;;;;;;;;;;5044750;28;19921;-62
2022/10/18 05:25:36;;;;;;;;;;;;;;;;;;5045186;28;20392;-62
2022/10/18 05:28:01;;;;;;;;;;;;;;;;;;5044099;28;19917;-62
2022/10/18 05:30:27;;;;;;;;;;;;;;;;;;5043528;28;19928;-62
2022/10/18 05:32:52;;;;;;;;;;;;;;;;;;5043954;28;19921;-62
2022/10/18 05:35:17;;;;;;;;;;;;;;;;;;5046582;28;19917;-61
2022/10/18 05:37:42;;;;;;;;;;;;;;;;;;5044457;28;20003;-62
2022/10/18 05:40:07;;;;;;;;;;;;;;;;;;5044904;28;19916;-62
2022/10/18 05:42:32;;;;;;;;;;;;;;;;;;5045237;28;19917;-61
2022/10/18 05:44:58;;;;;;;;;;;;;;;;;;5044055;28;20293;-62
2022/10/18 05:47:23;;;;;;;;;;;;;;;;;;5044514;28;20050;-62
2022/10/18 05:49:48;;;;;;;;;;;;;;;;;;5041698;28;19924;-62
2022/10/18 05:52:13;;;;;;;;;;;;;;;;;;5045454;28;19925;-62
2022/10/18 05:54:41;;;;;;;;;;;;;;;;;;5043558;28;19921;-62
2022/10/18 05:57:06;;;;;;;;;;;;;;;;;;5044677;28;19952;-62
2022/10/18 05:59:31;;;;;;;;;;;;;;;;;;5044541;28;19951;-62
2022/10/18 06:01:56;;;;;;;;;;;;;;;;;;5042660;28;19917;-62
2022/10/18 06:04:22;;;;;;;;;;;;;;;;;;5043681;28;19951;-62
2022/10/18 06:06:47;;;;;;;;;;;;;;;;;;5042039;28;20056;-62
2022/10/18 06:09:12;;;;;;;;;;;;;;;;;;5042263;28;19917;-62
2022/10/18 06:11:37;;;;;;;;;;;;;;;;;;5043579;28;19920;-61
2022/10/18 06:14:03;;;;;;;;;;;;;;;;;;5045451;28;19920;-61
2022/10/18 06:16:28;;;;;;;;;;;;;;;;;;5044679;28;19923;-62
2022/10/18 06:18:53;;;;;;;;;;;;;;;;;;5043227;28;20533;-61
2022/10/18 06:21:18;;;;;;;;;;;;;;;;;;5044719;28;19955;-62
2022/10/18 06:23:43;;;;;;;;;;;;;;;;;;5037753;28;19920;-62
2022/10/18 06:26:09;;;;;;;;;;;;;;;;;;5041612;28;19924;-61
2022/10/18 06:28:34;;;;;;;;;;;;;;;;;;5039872;28;20699;-62
2022/10/18 06:30:59;;;;;;;;;;;;;;;;;;5040286;28;19967;-62
2022/10/18 06:33:24;;;;;;;;;;;;;;;;;;5036486;28;19928;-62
2022/10/18 06:35:49;;;;;;;;;;;;;;;;;;5038311;28;19921;-62
2022/10/18 06:38:15;;;;;;;;;;;;;;;;;;5038983;28;19959;-62
2022/10/18 06:40:40;;;;;;;;;;;;;;;;;;5042488;28;19940;-61
2022/10/18 06:43:05;;;;;;;;;;;;;;;;;;5038922;28;19913;-61
2022/10/18 06:45:30;;;;;;;;;;;;;;;;;;5021781;28;19923;-62
2022/10/18 06:47:57;;;;;;;;;;;;;;;;;;5040951;28;19928;-61
2022/10/18 06:50:22;;;;;;;;;;;;;;;;;;5035923;28;19963;-61
2022/10/18 06:52:49;;;;;;;;;;;;;;;;;;5040614;28;19977;-61
2022/10/18 06:55:15;;;;;;;;;;;;;;;;;;5037367;28;19931;-62
2022/10/18 06:57:40;;;;;;;;;;;;;;;;;;5039327;28;19917;-62
2022/10/18 07:00:05;;;;;;;;;;;;;;;;;;5036062;28;19921;-62
2022/10/18 07:02:30;;;;;;;;;;;;;;;;;;5038432;28;19974;-62
2022/10/18 07:04:55;;;;;;;;;;;;;;;;;;5043634;28;20795;-63
2022/10/18 07:07:21;;;;;;;;;;;;;;;;;;5044605;28;19960;-62
2022/10/18 07:09:46;;;;;;;;;;;;;;;;;;5041555;28;19920;-63
2022/10/18 07:12:14;;;;;;;;;;;;;;;;;;5044416;28;19921;-62
2022/10/18 07:14:39;;;;;;;;;;;;;;;;;;5041796;28;19928;-62
2022/10/18 07:17:04;;;;;;;;;;;;;;;;;;5042979;28;19917;-62
2022/10/18 07:19:30;;;;;;;;;;;;;;;;;;5042390;28;19946;-62
2022/10/18 07:21:55;;;;;;;;;;;;;;;;;;5042453;28;19916;-62
2022/10/18 07:24:20;;;;;;;;;;;;;;;;;;5042229;28;19917;-63
2022/10/18 07:26:45;;;;;;;;;;;;;;;;;;5042333;28;20293;-62
2022/10/18 07:29:11;;;;;;;;;;;;;;;;;;5043408;28;20199;-61
2022/10/18 07:31:37;;;;;;;;;;;;;;;;;;5041263;28;20303;-62
2022/10/18 07:34:02;;;;;;;;;;;;;;;;;;5042347;28;20456;-61
2022/10/18 07:36:27;;;;;;;;;;;;;;;;;;5041890;28;19917;-62
2022/10/18 07:38:52;;;;;;;;;;;;;;;;;;5043493;28;19952;-62
2022/10/18 07:41:18;;;;;;;;;;;;;;;;;;5043276;28;19923;-62
2022/10/18 07:43:44;;;;;;;;;;;;;;;;;;5041353;28;19952;-62
2022/10/18 07:46:09;;;;;;;;;;;;;;;;;;5041890;28;19925;-62
2022/10/18 07:48:34;;;;;;;;;;;;;;;;;;5042620;28;19921;-62
2022/10/18 07:51:00;;;;;;;;;;;;;;;;;;5042587;28;19932;-63
2022/10/18 07:53:25;;;;;;;;;;;;;;;;;;5044449;28;19931;-62
2022/10/18 07:55:50;;;;;;;;;;;;;;;;;;5042680;28;20233;-62
2022/10/18 07:58:15;;;;;;;;;;;;;;;;;;5042079;28;19975;-62
2022/10/18 08:00:40;;;;;;;;;;;;;;;;;;5042712;28;20325;-63
2022/10/18 08:03:05;;;;;;;;;;;;;;;;;;5041845;28;19996;-63
2022/10/18 08:05:31;;;;;;;;;;;;;;;;;;5042865;28;19917;-63
2022/10/18 08:07:57;;;;;;;;;;;;;;;;;;5043514;28;19995;-63
2022/10/18 08:10:23;;;;;;;;;;;;;;;;;;5042800;28;20289;-63
2022/10/18 08:12:49;;;;;;;;;;;;;;;;;;5041426;28;20142;-62
2022/10/18 08:15:14;;;;;;;;;;;;;;;;;;5042894;28;20016;-63
2022/10/18 08:17:39;;;;;;;;;;;;;;;;;;5042056;28;20289;-62
2022/10/18 08:20:04;;;;;;;;;;;;;;;;;;5043104;28;19960;-62
2022/10/18 08:22:29;;;;;;;;;;;;;;;;;;5040541;28;20318;-63
2022/10/18 08:24:54;;;;;;;;;;;;;;;;;;5040493;28;19927;-61
2022/10/18 08:27:20;;;;;;;;;;;;;;;;;;5041900;28;19917;-63
2022/10/18 08:29:45;;;;;;;;;;;;;;;;;;5042157;28;20018;-63
2022/10/18 08:32:10;;;;;;;;;;;;;;;;;;5040454;28;21005;-63
2022/10/18 08:34:35;;;;;;;;;;;;;;;;;;5040378;28;19917;-62
2022/10/18 08:37:00;;;;;;;;;;;;;;;;;;5041365;28;19923;-61
2022/10/18 08:39:26;;;;;;;;;;;;;;;;;;5041400;28;20591;-61
2022/10/18 08:41:51;;;;;;;;;;;;;;;;;;5039641;28;19924;-61
2022/10/18 08:44:16;;;;;;;;;;;;;;;;;;5042843;28;20455;-61
2022/10/18 08:46:41;;;;;;;;;;;;;;;;;;5040989;28;19927;-61
2022/10/18 08:49:06;;;;;;;;;;;;;;;;;;5043086;28;19997;-61
2022/10/18 08:51:31;;;;;;;;;;;;;;;;;;5042751;28;19921;-61
2022/10/18 08:53:57;;;;;;;;;;;;;;;;;;5044159;28;19917;-62
2022/10/18 08:56:23;;;;;;;;;;;;;;;;;;5045000;28;19917;-62
2022/10/18 08:58:48;;;;;;;;;;;;;;;;;;5042099;28;19913;-62
2022/10/18 09:01:14;;;;;;;;;;;;;;;;;;5042912;28;19924;-62
2022/10/18 09:03:39;;;;;;;;;;;;;;;;;;5040118;28;19956;-62
2022/10/18 09:06:04;;;;;;;;;;;;;;;;;;5040800;28;19976;-63
2022/10/18 09:08:30;;;;;;;;;;;;;;;;;;5042237;28;19921;-63
2022/10/18 09:10:55;;;;;;;;;;;;;;;;;;5043045;28;20372;-63
2022/10/18 09:13:20;;;;;;;;;;;;;;;;;;5040581;28;19999;-63
2022/10/18 09:15:45;;;;;;;;;;;;;;;;;;5044495;28;20499;-62
2022/10/18 09:18:10;;;;;;;;;;;;;;;;;;5045100;28;20043;-63
2022/10/18 09:20:35;;;;;;;;;;;;;;;;;;5045113;28;19978;-63
2022/10/18 09:23:01;;;;;;;;;;;;;;;;;;5044907;28;20019;-62
2022/10/18 09:25:26;;;;;;;;;;;;;;;;;;5044648;28;19948;-62
2022/10/18 09:27:51;;;;;;;;;;;;;;;;;;5044440;28;19916;-63
2022/10/18 09:30:16;;;;;;;;;;;;;;;;;;5044099;28;20444;-63
2022/10/18 09:32:41;;;;;;;;;;;;;;;;;;5044251;28;19917;-63
2022/10/18 09:35:07;;;;;;;;;;;;;;;;;;5043701;28;19951;-63
2022/10/18 09:37:32;;;;;;;;;;;;;;;;;;5044332;28;20293;-63
2022/10/18 09:39:57;;;;;;;;;;;;;;;;;;5043734;28;19920;-63
2022/10/18 09:42:25;;;;;;;;;;;;;;;;;;5043947;28;20233;-63
2022/10/18 09:44:50;;;;;;;;;;;;;;;;;;5039080;28;19944;-63
2022/10/18 09:47:16;;;;;;;;;;;;;;;;;;5040977;28;20032;-63
2022/10/18 09:49:41;;;;;;;;;;;;;;;;;;5036547;28;19917;-63
2022/10/18 09:52:07;;;;;;;;;;;;;;;;;;5039794;28;20575;-63
2022/10/18 09:54:32;;;;;;;;;;;;;;;;;;5037075;28;20267;-63
2022/10/18 09:56:57;;;;;;;;;;;;;;;;;;5040398;28;20389;-63
2022/10/18 09:59:22;;;;;;;;;;;;;;;;;;5043812;28;20340;-63
2022/10/18 10:01:47;;;;;;;;;;;;;;;;;;5034465;28;19917;-63
2022/10/18 10:04:14;;;;;;;;;;;;;;;;;;5040473;28;19917;-62
2022/10/18 10:06:40;;;;;;;;;;;;;;;;;;5034664;28;19924;-63
2022/10/18 10:09:06;;;;;;;;;;;;;;;;;;5039422;28;19927;-63
2022/10/18 10:11:31;;;;;;;;;;;;;;;;;;5036673;28;19925;-63
2022/10/18 10:13:56;;;;;;;;;;;;;;;;;;5037283;28;19952;-63
2022/10/18 10:16:21;;;;;;;;;;;;;;;;;;5038828;28;19962;-63
2022/10/18 10:18:46;;;;;;;;;;;;;;;;;;5041147;28;20594;-64
2022/10/18 10:21:11;;;;;;;;;;;;;;;;;;5038005;28;20317;-63
2022/10/18 10:23:37;;;;;;;;;;;;;;;;;;5039614;28;19917;-63
2022/10/18 10:26:02;;;;;;;;;;;;;;;;;;5037539;28;19919;-63
2022/10/18 10:28:27;;;;;;;;;;;;;;;;;;5037327;28;19924;-63
2022/10/18 10:30:52;;;;;;;;;;;;;;;;;;5040056;28;20449;-61
2022/10/18 10:33:17;;;;;;;;;;;;;;;;;;5041087;28;19920;-61
2022/10/18 10:35:43;;;;;;;;;;;;;;;;;;5040766;28;19917;-61
2022/10/18 10:38:08;;;;;;;;;;;;;;;;;;5038033;28;19935;-61
2022/10/18 10:40:33;;;;;;;;;;;;;;;;;;5041373;28;19976;-61
2022/10/18 10:42:58;;;;;;;;;;;;;;;;;;5040845;28;20003;-62
2022/10/18 10:45:23;;;;;;;;;;;;;;;;;;5039445;28;19920;-62
2022/10/18 10:47:48;;;;;;;;;;;;;;;;;;5037622;28;19913;-62
2022/10/18 10:50:14;;;;;;;;;;;;;;;;;;5038220;28;19921;-62
2022/10/18 10:52:39;;;;;;;;;;;;;;;;;;5038196;28;19921;-62
2022/10/18 10:55:04;;;;;;;;;;;;;;;;;;5034848;28;20430;-61
2022/10/18 10:57:29;;;;;;;;;;;;;;;;;;5041522;28;19916;-62
2022/10/18 10:59:54;;;;;;;;;;;;;;;;;;5043378;28;19928;-62
2022/10/18 11:02:20;;;;;;;;;;;;;;;;;;5041954;28;19917;-60
2022/10/18 11:04:45;;;;;;;;;;;;;;;;;;5039449;28;20012;-62
2022/10/18 11:07:10;;;;;;;;;;;;;;;;;;5038038;28;20340;-62
2022/10/18 11:09:36;;;;;;;;;;;;;;;;;;5036777;28;19936;-62
2022/10/18 11:12:01;;;;;;;;;;;;;;;;;;5034659;28;19921;-62
2022/10/18 11:14:26;;;;;;;;;;;;;;;;;;5036488;28;19917;-62
2022/10/18 11:16:52;;;;;;;;;;;;;;;;;;5036863;28;20823;-62
2022/10/18 11:19:17;;;;;;;;;;;;;;;;;;5040993;28;19917;-62
2022/10/18 11:21:42;;;;;;;;;;;;;;;;;;5039575;28;20430;-62
2022/10/18 11:24:07;;;;;;;;;;;;;;;;;;5038397;28;19922;-62
2022/10/18 11:26:32;;;;;;;;;;;;;;;;;;5038326;28;19924;-62
2022/10/18 11:28:58;;;;;;;;;;;;;;;;;;5037470;28;20321;-62
2022/10/18 11:31:23;;;;;;;;;;;;;;;;;;5039028;28;19924;-61
2022/10/18 11:33:48;;;;;;;;;;;;;;;;;;5041058;28;19926;-61
2022/10/18 11:36:13;;;;;;;;;;;;;;;;;;5036278;28;19978;-61
2022/10/18 11:38:38;;;;;;;;;;;;;;;;;;5038614;28;19917;-61
2022/10/18 11:41:03;;;;;;;;;;;;;;;;;;5042508;28;19921;-61
2022/10/18 11:43:29;;;;;;;;;;;;;;;;;;5035551;28;19940;-62
2022/10/18 11:45:54;;;;;;;;;;;;;;;;;;5036896;28;19917;-61
2022/10/18 11:48:19;;;;;;;;;;;;;;;;;;5038484;28;20373;-61
2022/10/18 11:50:44;;;;;;;;;;;;;;;;;;5039943;28;19929;-61
2022/10/18 11:53:09;;;;;;;;;;;;;;;;;;5038065;28;19917;-61
2022/10/18 11:55:35;;;;;;;;;;;;;;;;;;5037077;28;19921;-61
2022/10/18 11:58:00;;;;;;;;;;;;;;;;;;5037940;28;20727;-61
2022/10/18 12:00:25;;;;;;;;;;;;;;;;;;5038855;28;19943;-61
2022/10/18 12:02:50;;;;;;;;;;;;;;;;;;5035426;28;19940;-61
2022/10/18 12:05:15;;;;;;;;;;;;;;;;;;5035985;28;19955;-61
2022/10/18 12:07:40;;;;;;;;;;;;;;;;;;5038505;28;19917;-61
2022/10/18 12:10:06;;;;;;;;;;;;;;;;;;5035343;28;20011;-62
2022/10/18 12:12:31;;;;;;;;;;;;;;;;;;5038187;28;20474;-62
2022/10/18 12:14:56;;;;;;;;;;;;;;;;;;5040128;28;19923;-62
2022/10/18 12:17:21;;;;;;;;;;;;;;;;;;5037230;28;19923;-61
2022/10/18 12:19:47;;;;;;;;;;;;;;;;;;5037182;28;20456;-62
2022/10/18 12:22:12;;;;;;;;;;;;;;;;;;5036503;28;19917;-62
2022/10/18 12:24:37;;;;;;;;;;;;;;;;;;5036830;28;20238;-61
2022/10/18 12:27:02;;;;;;;;;;;;;;;;;;5037588;28;20003;-61
2022/10/18 12:29:27;;;;;;;;;;;;;;;;;;5040647;28;19917;-62
2022/10/18 12:31:53;;;;;;;;;;;;;;;;;;5037477;28;19925;-62
2022/10/18 12:34:18;;;;;;;;;;;;;;;;;;5036837;28;19917;-62
2022/10/18 12:36:43;;;;;;;;;;;;;;;;;;5041257;28;19917;-63
2022/10/18 12:39:08;;;;;;;;;;;;;;;;;;5035447;28;20609;-62
2022/10/18 12:41:33;;;;;;;;;;;;;;;;;;5036231;28;19975;-62
2022/10/18 12:43:59;;;;;;;;;;;;;;;;;;5036344;28;19923;-63
2022/10/18 12:46:24;;;;;;;;;;;;;;;;;;5039697;28;19917;-62
2022/10/18 12:48:49;;;;;;;;;;;;;;;;;;5043290;28;20437;-62
2022/10/18 12:51:14;;;;;;;;;;;;;;;;;;5040535;28;19926;-62
2022/10/18 12:53:40;;;;;;;;;;;;;;;;;;5044862;28;19913;-63
2022/10/18 12:56:06;;;;;;;;;;;;;;;;;;5041770;28;19978;-62
2022/10/18 12:58:31;;;;;;;;;;;;;;;;;;5044321;28;20289;-62
2022/10/18 13:00:56;;;;;;;;;;;;;;;;;;5042612;28;20019;-63
2022/10/18 13:03:21;;;;;;;;;;;;;;;;;;5040050;28;19917;-62
2022/10/18 13:05:49;;;;;;;;;;;;;;;;;;5042675;28;19916;-62
2022/10/18 13:08:15;;;;;;;;;;;;;;;;;;5046259;28;19960;-63
2022/10/18 13:10:40;;;;;;;;;;;;;;;;;;5043954;28;20002;-62
2022/10/18 13:13:05;;;;;;;;;;;;;;;;;;5042838;28;20360;-62
2022/10/18 13:15:30;;;;;;;;;;;;;;;;;;5044833;28;19971;-62
2022/10/18 13:17:55;;;;;;;;;;;;;;;;;;5042695;28;19932;-63
2022/10/18 13:20:21;;;;;;;;;;;;;;;;;;5040961;28;19986;-62
2022/10/18 13:22:47;;;;;;;;;;;;;;;;;;5041393;28;20566;-62
2022/10/18 13:25:12;;;;;;;;;;;;;;;;;;5043858;28;19966;-62
2022/10/18 13:27:37;;;;;;;;;;;;;;;;;;5042615;28;20293;-62
2022/10/18 13:30:02;;;;;;;;;;;;;;;;;;5041715;28;20684;-62
2022/10/18 13:32:27;;;;;;;;;;;;;;;;;;5040793;28;20047;-62
2022/10/18 13:34:52;;;;;;;;;;;;;;;;;;5036790;28;20004;-62
2022/10/18 13:37:18;;;;;;;;;;;;;;;;;;5038186;28;19963;-62
2022/10/18 13:39:43;;;;;;;;;;;;;;;;;;5042873;28;20243;-62
2022/10/18 13:42:08;;;;;;;;;;;;;;;;;;5042089;28;19916;-62
2022/10/18 13:44:36;;;;;;;;;;;;;;;;;;5038079;28;19917;-62
2022/10/18 13:47:01;;;;;;;;;;;;;;;;;;5041555;28;20024;-62
2022/10/18 13:49:26;;;;;;;;;;;;;;;;;;5044235;28;20016;-62
2022/10/18 13:51:52;;;;;;;;;;;;;;;;;;5044190;28;20353;-62
2022/10/18 13:54:17;;;;;;;;;;;;;;;;;;5041832;28;19917;-62
2022/10/18 13:56:42;;;;;;;;;;;;;;;;;;5042512;28;19992;-62
2022/10/18 13:59:07;;;;;;;;;;;;;;;;;;5042049;28;20323;-62
2022/10/18 14:01:32;;;;;;;;;;;;;;;;;;5041951;28;19917;-62
2022/10/18 14:03:58;;;;;;;;;;;;;;;;;;5039898;28;19917;-63
2022/10/18 14:06:23;;;;;;;;;;;;;;;;;;5042362;28;20358;-62
2022/10/18 14:08:49;;;;;;;;;;;;;;;;;;5042582;28;19951;-62
2022/10/18 14:11:14;;;;;;;;;;;;;;;;;;5042118;28;19932;-62
2022/10/18 14:13:39;;;;;;;;;;;;;;;;;;5040346;28;20407;-62
2022/10/18 14:16:04;;;;;;;;;;;;;;;;;;5040919;28;19995;-62
2022/10/18 14:18:29;;;;;;;;;;;;;;;;;;5040625;28;19913;-62
2022/10/18 14:20:55;;;;;;;;;;;;;;;;;;5044373;28;20032;-63
2022/10/18 14:23:20;;;;;;;;;;;;;;;;;;5043386;28;19917;-62
2022/10/18 14:25:45;;;;;;;;;;;;;;;;;;5041115;28;20514;-62
2022/10/18 14:28:11;;;;;;;;;;;;;;;;;;5042274;28;20404;-62
2022/10/18 14:30:36;;;;;;;;;;;;;;;;;;5041953;28;19988;-63
2022/10/18 14:33:01;;;;;;;;;;;;;;;;;;5041216;28;19975;-62
2022/10/18 14:35:26;;;;;;;;;;;;;;;;;;5036801;28;19923;-62
2022/10/18 14:37:52;;;;;;;;;;;;;;;;;;5040733;28;19917;-62
2022/10/18 14:40:17;;;;;;;;;;;;;;;;;;5040091;28;19971;-63
2022/10/18 14:42:42;;;;;;;;;;;;;;;;;;5040733;28;20012;-62
2022/10/18 14:45:07;;;;;;;;;;;;;;;;;;5042124;28;19912;-62
2022/10/18 14:47:34;;;;;;;;;;;;;;;;;;5042479;28;19921;-62
2022/10/18 14:50:00;;;;;;;;;;;;;;;;;;5041178;28;19928;-62
2022/10/18 14:52:25;;;;;;;;;;;;;;;;;;5040465;28;19929;-62
2022/10/18 14:54:50;;;;;;;;;;;;;;;;;;5042883;28;20518;-62
2022/10/18 14:57:15;;;;;;;;;;;;;;;;;;5040776;28;19921;-62
2022/10/18 14:59:40;;;;;;;;;;;;;;;;;;5041994;28;19924;-63
2022/10/18 15:02:06;;;;;;;;;;;;;;;;;;5042562;28;20491;-62
2022/10/18 15:04:34;;;;;;;;;;;;;;;;;;5037351;28;20448;-62
2022/10/18 15:06:59;;;;;;;;;;;;;;;;;;5041419;28;20241;-62
2022/10/18 15:09:24;;;;;;;;;;;;;;;;;;5032862;28;20554;-62
2022/10/18 15:11:49;;;;;;;;;;;;;;;;;;5039408;28;19929;-62
2022/10/18 15:14:15;;;;;;;;;;;;;;;;;;5038852;28;19967;-62
2022/10/18 15:16:40;;;;;;;;;;;;;;;;;;5038693;28;19956;-62
2022/10/18 15:19:05;;;;;;;;;;;;;;;;;;5038707;28;19978;-62
2022/10/18 15:21:30;;;;;;;;;;;;;;;;;;5041018;28;20384;-62
2022/10/18 15:23:55;;;;;;;;;;;;;;;;;;5042133;28;19920;-62
2022/10/18 15:26:21;;;;;;;;;;;;;;;;;;5042743;28;19913;-62
2022/10/18 15:28:51;;;;;;;;;;;;;;;;;;5039077;28;19912;-62
2022/10/18 15:31:16;;;;;;;;;;;;;;;;;;5039107;28;20397;-63
2022/10/18 15:33:41;;;;;;;;;;;;;;;;;;5034619;28;20340;-62
2022/10/18 15:36:06;;;;;;;;;;;;;;;;;;5030187;28;20199;-62
2022/10/18 15:38:32;;;;;;;;;;;;;;;;;;5032048;28;19917;-62
2022/10/18 15:40:57;;;;;;;;;;;;;;;;;;5038984;28;20209;-63
2022/10/18 15:43:22;;;;;;;;;;;;;;;;;;5035114;28;19940;-63
2022/10/18 15:45:47;;;;;;;;;;;;;;;;;;5034247;28;19917;-63
2022/10/18 15:48:12;;;;;;;;;;;;;;;;;;5034804;28;19962;-62
2022/10/18 15:50:38;;;;;;;;;;;;;;;;;;5031918;28;20200;-62
2022/10/18 15:53:03;;;;;;;;;;;;;;;;;;5036102;28;19986;-63
2022/10/18 15:55:28;;;;;;;;;;;;;;;;;;5032415;28;19921;-62
2022/10/18 15:57:54;;;;;;;;;;;;;;;;;;5040973;28;19978;-62
2022/10/18 16:00:19;;;;;;;;;;;;;;;;;;5032369;28;19979;-62
2022/10/18 16:02:44;;;;;;;;;;;;;;;;;;5031412;28;19917;-63
2022/10/18 16:05:09;;;;;;;;;;;;;;;;;;5037532;28;19936;-63
2022/10/18 16:07:35;;;;;;;;;;;;;;;;;;5027980;28;20035;-62
2022/10/18 16:10:00;;;;;;;;;;;;;;;;;;5037636;28;20016;-62
2022/10/18 16:12:25;;;;;;;;;;;;;;;;;;5033835;28;19928;-63
2022/10/18 16:14:50;;;;;;;;;;;;;;;;;;5030853;28;20129;-63
2022/10/18 16:17:15;;;;;;;;;;;;;;;;;;5037364;28;19921;-63
2022/10/18 16:19:41;;;;;;;;;;;;;;;;;;5031268;28;19924;-63
2022/10/18 16:22:06;;;;;;;;;;;;;;;;;;5033436;28;19920;-63
2022/10/18 16:24:31;;;;;;;;;;;;;;;;;;5029321;28;19921;-62
2022/10/18 16:26:57;;;;;;;;;;;;;;;;;;5028184;28;20015;-63
2022/10/18 16:29:24;;;;;;;;;;;;;;;;;;5034760;28;19921;-63
2022/10/18 16:31:50;;;;;;;;;;;;;;;;;;5033051;28;19931;-63